Time;durP1;ratioP1;P1;durP2;ratioP2;P2;SDS_P1;SDS_P2;PMS_P1;PMS_P2;Temp;Humidity;BMP_temperature;BMP_pressure;BME280_temperature;BME280_humidity;BME280_pressure;Samples;Min_cycle;Max_cycle;Signal;HPM_P1;HPM_P2
2023/12/02 00:02:12;;;;;;;12.95;9.43;;;;;0.80;97274.00;;;;4900119;29;20080;-63
2023/12/02 00:04:38;;;;;;;13.25;10.40;;;;;0.80;97265.00;;;;4899429;29;20119;-62
2023/12/02 00:07:05;;;;;;;10.13;6.68;;;;;0.80;97277.00;;;;4899646;29;20053;-61
2023/12/02 00:09:32;;;;;;;9.98;7.10;;;;;0.80;97271.00;;;;4899715;29;20056;-62
2023/12/02 00:11:58;;;;;;;9.43;5.85;;;;;0.80;97277.00;;;;4899939;29;20052;-62
2023/12/02 00:14:25;;;;;;;10.48;6.60;;;;;0.80;97279.00;;;;4899268;29;20044;-62
2023/12/02 00:16:52;;;;;;;9.95;6.85;;;;;0.80;97280.00;;;;4898404;29;20059;-62
2023/12/02 00:19:18;;;;;;;10.43;6.38;;;;;0.80;97283.00;;;;4898403;29;20051;-62
2023/12/02 00:21:45;;;;;;;11.25;7.13;;;;;0.80;97278.00;;;;4899644;29;20076;-62
2023/12/02 00:24:11;;;;;;;9.43;7.07;;;;;0.80;97276.00;;;;4898919;29;20048;-62
2023/12/02 00:26:38;;;;;;;9.88;6.93;;;;;0.90;97271.00;;;;4899598;29;20049;-62
2023/12/02 00:29:05;;;;;;;10.40;6.05;;;;;0.90;97275.00;;;;4899461;29;20043;-62
2023/12/02 00:31:31;;;;;;;11.23;7.70;;;;;0.90;97267.00;;;;4898449;29;20048;-62
2023/12/02 00:33:58;;;;;;;9.50;6.53;;;;;0.80;97276.00;;;;4897402;29;20123;-62
2023/12/02 00:36:25;;;;;;;8.98;6.25;;;;;0.80;97256.00;;;;4899192;29;20048;-62
2023/12/02 00:38:51;;;;;;;13.10;7.43;;;;;0.80;97249.00;;;;4899113;29;20085;-62
2023/12/02 00:41:19;;;;;;;10.05;6.22;;;;;0.70;97255.00;;;;4899387;29;20063;-63
2023/12/02 00:43:45;;;;;;;9.10;6.95;;;;;0.70;97254.00;;;;4897428;29;20041;-60
2023/12/02 00:46:12;;;;;;;12.55;7.22;;;;;0.70;97253.00;;;;4897960;29;20053;-60
2023/12/02 00:48:39;;;;;;;9.15;6.28;;;;;0.70;97261.00;;;;4899209;29;20128;-60
2023/12/02 00:51:06;;;;;;;12.32;7.10;;;;;0.80;97254.00;;;;4899181;29;20083;-60
2023/12/02 00:53:33;;;;;;;12.80;6.85;;;;;1.00;97262.00;;;;4898367;29;20255;-60
2023/12/02 00:55:59;;;;;;;9.88;6.97;;;;;0.90;97263.00;;;;4899610;29;20044;-60
2023/12/02 00:58:26;;;;;;;10.25;7.10;;;;;1.00;97264.00;;;;4899780;29;20051;-60
2023/12/02 01:01:04;;;;;;;11.32;6.53;;;;;1.00;97262.00;;;;4899336;29;20554;-61
2023/12/02 01:03:30;;;;;;;11.63;7.10;;;;;0.90;97267.00;;;;4898435;29;20490;-60
2023/12/02 01:05:57;;;;;;;9.50;6.38;;;;;0.90;97281.00;;;;4898561;29;20124;-60
2023/12/02 01:08:24;;;;;;;10.35;7.22;;;;;0.80;97277.00;;;;4898723;29;20100;-62
2023/12/02 01:10:50;;;;;;;11.02;7.25;;;;;0.70;97272.00;;;;4898746;29;20076;-61
2023/12/02 01:13:17;;;;;;;11.55;7.43;;;;;0.60;97275.00;;;;4898829;29;20044;-59
2023/12/02 01:15:44;;;;;;;15.25;8.43;;;;;0.70;97288.00;;;;4898133;29;20060;-62
2023/12/02 01:18:10;;;;;;;10.63;7.43;;;;;0.70;97288.00;;;;4898539;29;20072;-61
2023/12/02 01:20:38;;;;;;;11.27;7.45;;;;;0.80;97280.00;;;;4898636;29;20048;-60
2023/12/02 01:23:04;;;;;;;11.10;7.43;;;;;0.80;97301.00;;;;4897204;29;20072;-61
2023/12/02 01:25:31;;;;;;;10.15;6.88;;;;;0.70;97299.00;;;;4897924;29;20482;-61
2023/12/02 01:27:57;;;;;;;11.70;7.53;;;;;0.70;97304.00;;;;4881577;29;20083;-61
2023/12/02 01:30:24;;;;;;;14.55;7.70;;;;;0.70;97300.00;;;;4898315;29;20051;-60
2023/12/02 01:32:51;;;;;;;11.70;7.65;;;;;0.60;97300.00;;;;4898180;29;20490;-61
2023/12/02 01:35:18;;;;;;;10.40;7.30;;;;;0.70;97309.00;;;;4898984;29;20064;-61
2023/12/02 01:37:44;;;;;;;10.35;7.20;;;;;0.70;97308.00;;;;4897879;29;20139;-61
2023/12/02 01:40:12;;;;;;;11.52;7.20;;;;;0.70;97307.00;;;;4899274;29;20051;-61
2023/12/02 01:42:39;;;;;;;12.23;7.03;;;;;0.60;97309.00;;;;4899553;29;20052;-61
2023/12/02 01:45:06;;;;;;;13.48;7.68;;;;;0.60;97311.00;;;;4899102;29;20132;-60
2023/12/02 01:47:33;;;;;;;10.32;6.85;;;;;0.60;97324.00;;;;4899322;29;20490;-61
2023/12/02 01:50:00;;;;;;;11.65;6.85;;;;;0.50;97318.00;;;;4914164;29;20049;-60
2023/12/02 01:52:27;;;;;;;11.55;7.13;;;;;0.50;97330.00;;;;4897842;29;20044;-61
2023/12/02 01:54:54;;;;;;;10.68;7.32;;;;;0.40;97331.00;;;;4898597;29;20482;-61
2023/12/02 01:57:21;;;;;;;11.40;7.50;;;;;0.30;97325.00;;;;4898222;29;20096;-60
2023/12/02 01:59:54;;;;;;;9.80;7.03;;;;;0.30;97336.00;;;;4898251;29;20044;-61
2023/12/02 02:02:21;;;;;;;12.40;7.90;;;;;0.30;97331.00;;;;4897914;29;20509;-62
2023/12/02 02:04:48;;;;;;;11.10;6.78;;;;;0.30;97330.00;;;;4896154;29;20092;-60
2023/12/02 02:07:15;;;;;;;9.73;6.85;;;;;0.30;97325.00;;;;4897515;29;20055;-61
2023/12/02 02:09:48;;;;;;;11.20;7.07;;;;;0.30;97326.00;;;;4896736;29;20063;-61
2023/12/02 02:12:16;;;;;;;11.32;7.13;;;;;0.30;97336.00;;;;4896662;29;20045;-60
2023/12/02 02:14:43;;;;;;;14.55;7.68;;;;;0.40;97339.00;;;;4895971;29;20091;-62
2023/12/02 02:17:10;;;;;;;11.55;7.57;;;;;0.40;97341.00;;;;4896579;29;20510;-61
2023/12/02 02:19:36;;;;;;;11.05;6.88;;;;;0.50;97343.00;;;;4896263;29;20077;-60
2023/12/02 02:22:03;;;;;;;11.25;7.45;;;;;0.50;97337.00;;;;4896193;29;20052;-61
2023/12/02 02:24:30;;;;;;;11.98;7.63;;;;;0.50;97342.00;;;;4896901;29;20051;-61
2023/12/02 02:26:57;;;;;;;12.57;6.95;;;;;0.50;97340.00;;;;4896365;29;20057;-61
2023/12/02 02:29:24;;;;;;;9.50;6.38;;;;;0.40;97339.00;;;;4896130;29;20104;-61
2023/12/02 02:31:50;;;;;;;10.65;7.10;;;;;0.40;97340.00;;;;4897445;29;20136;-61
2023/12/02 02:34:18;;;;;;;9.95;6.72;;;;;0.40;97334.00;;;;4895450;29;20051;-60
2023/12/02 02:36:45;;;;;;;11.48;7.03;;;;;0.40;97339.00;;;;4897086;29;20048;-60
2023/12/02 02:39:11;;;;;;;10.18;6.15;;;;;0.40;97349.00;;;;4897526;29;20049;-60
2023/12/02 02:41:39;;;;;;;8.65;6.00;;;;;0.30;97334.00;;;;4896041;29;20048;-61
2023/12/02 02:44:05;;;;;;;9.57;6.45;;;;;0.20;97345.00;;;;4895721;29;20043;-60
2023/12/02 02:46:32;;;;;;;9.85;6.30;;;;;0.20;97338.00;;;;4897270;29;20051;-61
2023/12/02 02:48:59;;;;;;;9.45;6.38;;;;;0.20;97344.00;;;;4896271;29;20080;-61
2023/12/02 02:51:26;;;;;;;12.18;6.88;;;;;0.30;97354.00;;;;4896169;29;20045;-61
2023/12/02 02:53:53;;;;;;;11.60;7.32;;;;;0.30;97351.00;;;;4895845;29;20112;-62
2023/12/02 02:56:20;;;;;;;11.32;6.55;;;;;0.30;97346.00;;;;4897313;29;20128;-62
2023/12/02 02:58:46;;;;;;;12.40;6.68;;;;;0.30;97359.00;;;;4896601;29;20068;-62
2023/12/02 03:01:13;;;;;;;11.13;6.47;;;;;0.20;97350.00;;;;4880869;29;20056;-61
2023/12/02 03:03:39;;;;;;;9.23;6.25;;;;;0.10;97354.00;;;;4895744;29;20402;-61
2023/12/02 03:06:07;;;;;;;10.10;6.75;;;;;0.10;97361.00;;;;4897301;29;20127;-61
2023/12/02 03:08:35;;;;;;;10.30;6.78;;;;;0.10;97362.00;;;;4897241;29;20044;-62
2023/12/02 03:11:02;;;;;;;11.45;6.90;;;;;0.20;97360.00;;;;4899887;29;20052;-60
2023/12/02 03:13:28;;;;;;;11.07;6.90;;;;;0.20;97360.00;;;;4900658;29;20048;-60
2023/12/02 03:15:55;;;;;;;10.82;6.65;;;;;0.10;97352.00;;;;4901297;29;20048;-62
2023/12/02 03:18:22;;;;;;;10.30;6.88;;;;;0.10;97359.00;;;;4900077;29;20045;-61
2023/12/02 03:20:49;;;;;;;11.65;6.75;;;;;0.10;97361.00;;;;4900842;29;20059;-60
2023/12/02 03:23:15;;;;;;;10.27;6.70;;;;;0.00;97351.00;;;;4900601;29;20128;-61
2023/12/02 03:25:42;;;;;;;12.65;6.80;;;;;0.00;97360.00;;;;4898947;29;20506;-61
2023/12/02 03:28:09;;;;;;;13.93;8.18;;;;;0.00;97357.00;;;;4901162;29;20059;-60
2023/12/02 03:30:35;;;;;;;11.60;7.32;;;;;0.00;97358.00;;;;4900453;29;20128;-61
2023/12/02 03:33:02;;;;;;;10.68;7.05;;;;;0.00;97361.00;;;;4900669;29;20074;-61
2023/12/02 03:35:29;;;;;;;10.93;6.75;;;;;0.00;97366.00;;;;4899796;29;20048;-60
2023/12/02 03:37:55;;;;;;;10.85;6.43;;;;;0.00;97357.00;;;;4899481;29;20135;-61
2023/12/02 03:40:22;;;;;;;11.20;7.88;;;;;0.00;97367.00;;;;4900586;29;20135;-61
2023/12/02 03:42:49;;;;;;;12.35;7.20;;;;;0.10;97368.00;;;;4900408;29;20056;-61
2023/12/02 03:45:15;;;;;;;9.98;7.05;;;;;0.10;97369.00;;;;4899811;29;20052;-62
2023/12/02 03:47:42;;;;;;;12.30;6.88;;;;;0.10;97376.00;;;;4900214;29;20044;-61
2023/12/02 03:50:09;;;;;;;10.00;7.07;;;;;0.00;97363.00;;;;4900369;29;20088;-60
2023/12/02 03:52:36;;;;;;;12.50;7.65;;;;;-0.10;97369.00;;;;4899153;29;20495;-61
2023/12/02 03:55:03;;;;;;;10.40;7.15;;;;;-0.10;97370.00;;;;4899529;29;20132;-60
2023/12/02 03:57:30;;;;;;;10.45;6.20;;;;;0.00;97370.00;;;;4899280;29;20052;-61
2023/12/02 03:59:57;;;;;;;11.57;6.82;;;;;-0.10;97374.00;;;;4900134;29;20040;-60
2023/12/02 04:02:24;;;;;;;12.80;7.43;;;;;-0.20;97382.00;;;;4900301;29;20044;-62
2023/12/02 04:04:51;;;;;;;12.43;7.57;;;;;-0.20;97392.00;;;;4898616;29;20152;-61
2023/12/02 04:07:18;;;;;;;12.73;6.95;;;;;-0.30;97384.00;;;;4900145;29;20461;-60
2023/12/02 04:09:46;;;;;;;10.88;7.40;;;;;-0.20;97376.00;;;;4898942;29;20127;-61
2023/12/02 04:12:13;;;;;;;11.90;6.53;;;;;-0.20;97396.00;;;;4899283;29;20060;-62
2023/12/02 04:14:40;;;;;;;11.00;7.00;;;;;-0.30;97405.00;;;;4882550;29;20055;-62
2023/12/02 04:17:08;;;;;;;9.45;6.93;;;;;-0.40;97405.00;;;;4899614;29;20120;-62
2023/12/02 04:19:34;;;;;;;9.50;6.20;;;;;-0.40;97400.00;;;;4899626;29;20128;-63
2023/12/02 04:22:01;;;;;;;10.38;6.80;;;;;-0.50;97403.00;;;;4899751;29;20049;-62
2023/12/02 04:24:28;;;;;;;10.20;6.32;;;;;-0.40;97402.00;;;;4899416;29;20071;-61
2023/12/02 04:26:55;;;;;;;9.75;6.38;;;;;-0.50;97403.00;;;;4900025;29;20056;-62
2023/12/02 04:29:22;;;;;;;10.52;6.90;;;;;-0.40;97409.00;;;;4898574;29;20052;-61
2023/12/02 04:31:48;;;;;;;10.20;7.03;;;;;-0.40;97408.00;;;;4898281;29;20097;-62
2023/12/02 04:34:15;;;;;;;10.18;6.30;;;;;-0.40;97408.00;;;;4897928;29;20076;-63
2023/12/02 04:36:43;;;;;;;9.30;6.57;;;;;-0.30;97414.00;;;;4899636;29;20049;-62
2023/12/02 04:39:12;;;;;;;9.98;6.45;;;;;-0.30;97420.00;;;;4898403;29;20056;-62
2023/12/02 04:41:39;;;;;;;11.50;7.45;;;;;-0.30;97430.00;;;;4898340;29;20055;-63
2023/12/02 04:44:06;;;;;;;10.15;6.28;;;;;-0.20;97440.00;;;;4898814;29;20100;-63
2023/12/02 04:46:32;;;;;;;10.60;6.90;;;;;-0.20;97444.00;;;;4898210;29;20048;-61
2023/12/02 04:48:59;;;;;;;10.75;6.47;;;;;-0.10;97450.00;;;;4898006;29;20413;-61
2023/12/02 04:51:26;;;;;;;8.95;5.70;;;;;0.00;97453.00;;;;4897867;29;20500;-61
2023/12/02 04:53:53;;;;;;;9.85;5.95;;;;;-0.30;97456.00;;;;4898738;29;20045;-61
2023/12/02 04:56:19;;;;;;;8.90;5.93;;;;;-0.60;97453.00;;;;4897918;29;20280;-61
2023/12/02 04:58:46;;;;;;;7.63;5.05;;;;;-0.60;97462.00;;;;4897866;29;20059;-62
2023/12/02 05:01:13;;;;;;;9.10;5.95;;;;;-0.70;97464.00;;;;4899078;29;20051;-61
2023/12/02 05:03:40;;;;;;;11.43;5.70;;;;;-0.70;97464.00;;;;4898225;29;20067;-62
2023/12/02 05:06:11;;;;;;;9.35;5.78;;;;;-0.70;97475.00;;;;4882066;29;20510;-61
2023/12/02 05:08:38;;;;;;;7.55;5.40;;;;;-0.60;97477.00;;;;4897871;29;20142;-61
2023/12/02 05:11:05;;;;;;;10.18;5.65;;;;;-0.60;97480.00;;;;4899050;29;20045;-62
2023/12/02 05:13:32;;;;;;;9.52;6.10;;;;;-0.60;97489.00;;;;4898330;29;20139;-61
2023/12/02 05:15:58;;;;;;;13.70;6.22;;;;;-0.60;97493.00;;;;4898958;29;20049;-63
2023/12/02 05:18:25;;;;;;;11.90;6.82;;;;;-0.60;97495.00;;;;4897745;29;20048;-62
2023/12/02 05:20:51;;;;;;;8.43;5.20;;;;;-0.60;97492.00;;;;4881937;29;20521;-61
2023/12/02 05:23:18;;;;;;;8.50;5.40;;;;;-0.60;97502.00;;;;4897259;29;20053;-62
2023/12/02 05:25:45;;;;;;;8.52;6.22;;;;;-0.50;97505.00;;;;4897878;29;20059;-62
2023/12/02 05:28:12;;;;;;;11.32;5.82;;;;;-0.50;97518.00;;;;4897345;29;20068;-61
2023/12/02 05:30:38;;;;;;;8.38;5.40;;;;;-0.50;97518.00;;;;4897245;29;20123;-61
2023/12/02 05:33:05;;;;;;;9.15;5.85;;;;;-0.50;97523.00;;;;4897682;29;20498;-61
2023/12/02 05:35:32;;;;;;;10.07;6.20;;;;;-0.50;97532.00;;;;4897643;29;20044;-59
2023/12/02 05:37:58;;;;;;;8.20;5.50;;;;;-0.40;97532.00;;;;4898862;29;20044;-63
2023/12/02 05:40:25;;;;;;;9.05;5.15;;;;;-0.40;97532.00;;;;4898223;29;20057;-63
2023/12/02 05:42:51;;;;;;;9.82;5.97;;;;;-0.30;97542.00;;;;4897249;29;20133;-64
2023/12/02 05:45:18;;;;;;;8.32;5.97;;;;;-0.30;97536.00;;;;4897474;29;20049;-63
2023/12/02 05:47:45;;;;;;;7.75;5.40;;;;;-0.30;97551.00;;;;4898234;29;20052;-63
2023/12/02 05:50:11;;;;;;;7.78;5.78;;;;;-0.40;97558.00;;;;4898043;29;20072;-63
2023/12/02 05:52:38;;;;;;;8.98;4.38;;;;;-0.50;97560.00;;;;4898124;29;20127;-64
2023/12/02 05:55:05;;;;;;;8.45;5.10;;;;;-0.60;97566.00;;;;4897308;29;20052;-64
2023/12/02 05:57:36;;;;;;;7.45;4.95;;;;;-0.70;97569.00;;;;4898011;29;20060;-63
2023/12/02 06:00:03;;;;;;;8.93;5.65;;;;;-0.70;97565.00;;;;4897659;29;20049;-63
2023/12/02 06:02:30;;;;;;;8.88;5.50;;;;;-0.70;97563.00;;;;4898436;29;20264;-63
2023/12/02 06:04:56;;;;;;;7.25;5.40;;;;;-0.70;97562.00;;;;4897882;29;20459;-64
2023/12/02 06:07:23;;;;;;;7.95;5.72;;;;;-0.70;97560.00;;;;4897260;29;20044;-64
2023/12/02 06:09:49;;;;;;;7.18;4.72;;;;;-0.80;97571.00;;;;4897888;29;20084;-64
2023/12/02 06:12:16;;;;;;;10.25;5.50;;;;;-0.70;97572.00;;;;4896301;29;20052;-63
2023/12/02 06:14:42;;;;;;;14.73;6.18;;;;;-0.70;97572.00;;;;4897837;29;20119;-63
2023/12/02 06:17:09;;;;;;;9.75;6.13;;;;;-0.70;97577.00;;;;4897490;29;20045;-63
2023/12/02 06:19:36;;;;;;;8.77;5.90;;;;;-0.70;97582.00;;;;4882205;29;20057;-64
2023/12/02 06:22:03;;;;;;;7.38;5.78;;;;;-0.60;97588.00;;;;4897534;29;20063;-64
2023/12/02 06:24:30;;;;;;;8.77;5.32;;;;;-0.50;97585.00;;;;4896921;29;20055;-63
2023/12/02 06:26:56;;;;;;;9.55;5.47;;;;;-0.50;97583.00;;;;4897333;29;20060;-64
2023/12/02 06:29:23;;;;;;;8.07;5.55;;;;;-0.60;97584.00;;;;4896450;29;20053;-64
2023/12/02 06:31:51;;;;;;;10.00;6.13;;;;;-0.50;97592.00;;;;4897393;29;20146;-64
2023/12/02 06:34:17;;;;;;;9.43;4.93;;;;;-0.40;97596.00;;;;4896439;29;20136;-64
2023/12/02 06:36:44;;;;;;;6.80;5.30;;;;;-0.40;97597.00;;;;4897500;29;20300;-64
2023/12/02 06:39:12;;;;;;;7.53;5.05;;;;;-0.50;97599.00;;;;4897672;29;20055;-64
2023/12/02 06:41:41;;;;;;;8.48;5.70;;;;;-0.40;97602.00;;;;4897314;29;20048;-64
2023/12/02 06:44:08;;;;;;;7.95;4.97;;;;;-0.50;97602.00;;;;4894552;29;20127;-64
2023/12/02 06:46:35;;;;;;;10.23;6.35;;;;;-0.40;97612.00;;;;4895851;29;20062;-66
2023/12/02 06:49:02;;;;;;;6.47;4.97;;;;;-0.50;97606.00;;;;4897012;29;20131;-64
2023/12/02 06:51:29;;;;;;;6.85;4.97;;;;;-0.50;97614.00;;;;4897056;29;20058;-65
2023/12/02 06:53:57;;;;;;;7.60;4.82;;;;;-0.70;97616.00;;;;4910999;29;20072;-64
2023/12/02 06:56:25;;;;;;;7.93;5.07;;;;;-0.70;97624.00;;;;4896864;29;20045;-64
2023/12/02 06:58:52;;;;;;;6.50;4.88;;;;;-0.70;97622.00;;;;4896997;29;20411;-66
2023/12/02 07:01:30;;;;;;;8.25;5.20;;;;;-0.60;97631.00;;;;4897051;29;20056;-65
2023/12/02 07:03:59;;;;;;;9.40;5.10;;;;;-0.50;97630.00;;;;4896862;29;20172;-65
2023/12/02 07:06:27;;;;;;;5.35;4.30;;;;;-0.50;97623.00;;;;4897078;29;20119;-65
2023/12/02 07:08:54;;;;;;;6.15;4.45;;;;;-0.40;97636.00;;;;4897231;29;20081;-65
2023/12/02 07:11:22;;;;;;;6.50;4.82;;;;;-0.60;97644.00;;;;4897169;29;20071;-65
2023/12/02 07:13:49;;;;;;;6.25;4.63;;;;;-0.60;97641.00;;;;4896564;29;20074;-65
2023/12/02 07:16:15;;;;;;;6.53;4.65;;;;;-0.60;97646.00;;;;4895702;29;20123;-64
2023/12/02 07:18:42;;;;;;;6.82;4.75;;;;;-0.60;97654.00;;;;4897105;29;20048;-64
2023/12/02 07:21:09;;;;;;;6.47;4.50;;;;;-0.50;97663.00;;;;4896898;29;20466;-64
2023/12/02 07:23:36;;;;;;;6.35;4.57;;;;;-0.50;97666.00;;;;4896170;29;20085;-63
2023/12/02 07:26:03;;;;;;;7.05;4.70;;;;;-0.50;97678.00;;;;4895430;29;20045;-64
2023/12/02 07:28:29;;;;;;;6.45;4.55;;;;;-0.60;97683.00;;;;4895373;29;20056;-64
2023/12/02 07:30:56;;;;;;;5.82;3.95;;;;;-0.50;97679.00;;;;4896960;29;20051;-64
2023/12/02 07:33:22;;;;;;;6.20;4.25;;;;;-0.60;97692.00;;;;4895577;29;20048;-63
2023/12/02 07:35:49;;;;;;;5.90;4.38;;;;;-0.60;97693.00;;;;4896599;29;20112;-64
2023/12/02 07:38:16;;;;;;;14.90;8.10;;;;;-0.70;97689.00;;;;4896803;29;20095;-64
2023/12/02 07:40:42;;;;;;;7.13;4.40;;;;;-0.80;97697.00;;;;4896764;29;20128;-63
2023/12/02 07:43:09;;;;;;;7.13;5.30;;;;;-0.80;97693.00;;;;4896687;29;20123;-64
2023/12/02 07:45:36;;;;;;;5.75;4.38;;;;;-0.80;97703.00;;;;4895372;29;20530;-64
2023/12/02 07:48:04;;;;;;;5.95;4.28;;;;;-0.70;97712.00;;;;4897065;29;20051;-63
2023/12/02 07:50:30;;;;;;;6.38;4.28;;;;;-0.70;97707.00;;;;4897638;29;20105;-64
2023/12/02 07:52:58;;;;;;;8.25;4.95;;;;;-0.80;97713.00;;;;4896332;29;20214;-64
2023/12/02 07:55:25;;;;;;;7.60;4.72;;;;;-0.70;97713.00;;;;4898597;29;20055;-62
2023/12/02 07:57:52;;;;;;;7.05;4.38;;;;;-0.60;97716.00;;;;4900943;29;20059;-63
2023/12/02 08:00:18;;;;;;;5.80;4.53;;;;;-0.70;97709.00;;;;4900569;29;20048;-63
2023/12/02 08:02:45;;;;;;;4.97;3.72;;;;;-0.60;97715.00;;;;4900767;29;20052;-62
2023/12/02 08:05:12;;;;;;;7.57;4.30;;;;;-0.50;97711.00;;;;4883027;29;20525;-61
2023/12/02 08:07:41;;;;;;;6.82;4.95;;;;;-0.40;97714.00;;;;4898764;29;20140;-62
2023/12/02 08:10:09;;;;;;;6.63;4.80;;;;;-0.30;97717.00;;;;4900137;29;20387;-61
2023/12/02 08:12:36;;;;;;;5.32;4.10;;;;;-0.30;97727.00;;;;4899721;29;20049;-61
2023/12/02 08:15:04;;;;;;;6.90;3.85;;;;;-0.40;97728.00;;;;4898146;29;20076;-63
2023/12/02 08:17:31;;;;;;;5.32;4.20;;;;;-0.50;97721.00;;;;4898547;29;20145;-62
2023/12/02 08:19:58;;;;;;;6.50;4.50;;;;;-0.60;97728.00;;;;4899653;29;20494;-64
2023/12/02 08:22:24;;;;;;;6.40;4.53;;;;;-0.60;97726.00;;;;4900087;29;20402;-62
2023/12/02 08:24:52;;;;;;;5.88;4.05;;;;;-0.50;97733.00;;;;4899277;29;20052;-62
2023/12/02 08:27:19;;;;;;;6.97;4.47;;;;;-0.50;97727.00;;;;4898747;29;20462;-62
2023/12/02 08:29:45;;;;;;;6.68;4.53;;;;;-0.40;97729.00;;;;4899478;29;20179;-61
2023/12/02 08:32:12;;;;;;;5.25;4.00;;;;;-0.40;97742.00;;;;4898271;29;20062;-62
2023/12/02 08:34:39;;;;;;;4.95;3.80;;;;;-0.30;97745.00;;;;4898900;29;20056;-62
2023/12/02 08:37:06;;;;;;;5.03;3.72;;;;;-0.30;97743.00;;;;4898111;29;20048;-62
2023/12/02 08:39:33;;;;;;;6.70;4.68;;;;;-0.30;97755.00;;;;4897967;29;20119;-62
2023/12/02 08:42:00;;;;;;;4.80;3.33;;;;;-0.40;97755.00;;;;4899308;29;20104;-62
2023/12/02 08:44:27;;;;;;;6.72;4.13;;;;;-0.50;97752.00;;;;4898636;29;20135;-62
2023/12/02 08:46:53;;;;;;;6.38;4.80;;;;;-0.50;97755.00;;;;4899081;29;20096;-62
2023/12/02 08:49:20;;;;;;;5.55;3.45;;;;;-0.50;97759.00;;;;4899045;29;20097;-62
2023/12/02 08:51:47;;;;;;;5.40;4.20;;;;;-0.40;97765.00;;;;4898939;29;20072;-62
2023/12/02 08:54:14;;;;;;;6.25;3.92;;;;;-0.50;97765.00;;;;4897101;29;20061;-62
2023/12/02 08:56:40;;;;;;;5.65;4.10;;;;;-0.50;97765.00;;;;4913210;29;20123;-62
2023/12/02 08:59:07;;;;;;;5.43;4.28;;;;;-0.40;97771.00;;;;4898843;29;20131;-62
2023/12/02 09:01:34;;;;;;;5.22;4.00;;;;;-0.30;97762.00;;;;4897505;29;20060;-62
2023/12/02 09:04:01;;;;;;;5.05;4.28;;;;;-0.20;97779.00;;;;4898338;29;20052;-62
2023/12/02 09:06:28;;;;;;;5.75;4.47;;;;;-0.10;97778.00;;;;4896483;29;20048;-62
2023/12/02 09:08:55;;;;;;;5.60;4.20;;;;;0.00;97779.00;;;;4898622;29;20091;-62
2023/12/02 09:11:22;;;;;;;5.25;4.20;;;;;0.00;97798.00;;;;4899262;29;20144;-62
2023/12/02 09:13:49;;;;;;;6.07;3.85;;;;;-0.20;97790.00;;;;4896973;29;20059;-63
2023/12/02 09:16:28;;;;;;;6.28;4.10;;;;;-0.30;97790.00;;;;4912972;29;20087;-61
2023/12/02 09:18:55;;;;;;;7.20;4.00;;;;;-0.30;97796.00;;;;4897507;29;20059;-61
2023/12/02 09:21:21;;;;;;;4.85;4.10;;;;;-0.30;97792.00;;;;4898692;29;20045;-62
2023/12/02 09:23:48;;;;;;;5.88;4.47;;;;;-0.30;97809.00;;;;4898248;29;20108;-61
2023/12/02 09:26:38;;;;;;;4.95;3.53;;;;;-0.30;97819.00;;;;4897249;29;20048;-61
2023/12/02 09:29:04;;;;;;;5.63;3.88;;;;;-0.10;97823.00;;;;4898775;29;20131;-61
2023/12/02 09:31:31;;;;;;;5.55;3.35;;;;;-0.20;97825.00;;;;4898879;29;20494;-60
2023/12/02 09:34:04;;;;;;;3.55;3.20;;;;;-0.40;97838.00;;;;4896922;29;20502;-61
2023/12/02 09:36:35;;;;;;;4.82;3.72;;;;;-0.30;97835.00;;;;4898591;29;20123;-61
2023/12/02 09:39:24;;;;;;;4.75;3.70;;;;;-0.30;97840.00;;;;4897348;29;20076;-62
2023/12/02 09:41:56;;;;;;;4.53;3.47;;;;;-0.30;97844.00;;;;4898167;29;20135;-63
2023/12/02 09:44:44;;;;;;;5.15;3.30;;;;;-0.30;97852.00;;;;4898563;29;20138;-63
2023/12/02 09:47:18;;;;;;;4.95;3.92;;;;;-0.40;97856.00;;;;4898945;29;20056;-63
2023/12/02 09:49:59;;;;;;;;;;;;;-0.30;97857.00;;;;4899575;29;20059;-62
2023/12/02 09:52:45;;;;;;;5.68;4.03;;;;;-0.40;97864.00;;;;4898084;29;20023;-62
2023/12/02 09:55:15;;;;;;;7.63;4.43;;;;;-0.50;97863.00;;;;4897331;29;20508;-62
2023/12/02 09:58:03;;;;;;;5.68;3.60;;;;;-0.50;97862.00;;;;4897907;29;20052;-63
2023/12/02 10:00:38;;;;;;;7.40;4.28;;;;;-0.60;97873.00;;;;4897774;29;20079;-63
2023/12/02 10:03:15;;;;;;;8.00;5.35;;;;;-0.70;97872.00;;;;4897760;29;20140;-63
2023/12/02 10:05:54;;;;;;;5.07;3.90;;;;;-0.70;97878.00;;;;4895968;29;20057;-63
2023/12/02 10:09:07;;;;;;;6.88;4.10;;;;;-0.70;97874.00;;;;4897681;29;20123;-63
2023/12/02 10:11:43;;;;;;;6.07;3.53;;;;;-0.70;97871.00;;;;4897715;29;20076;-63
2023/12/02 10:14:11;;;;;;;6.03;3.97;;;;;-0.70;97875.00;;;;4895775;29;20502;-63
2023/12/02 10:16:41;;;;;;;13.55;7.72;;;;;-0.60;97874.00;;;;4896086;29;20045;-62
2023/12/02 10:19:12;;;;;;;6.32;4.65;;;;;-0.60;97881.00;;;;4897362;29;20454;-63
2023/12/02 10:21:43;;;;;;;4.75;3.92;;;;;-0.60;97882.00;;;;4896226;29;20160;-63
2023/12/02 10:24:11;;;;;;;8.27;4.30;;;;;-0.50;97880.00;;;;4897212;29;20053;-63
2023/12/02 10:27:03;;;;;;;7.95;5.68;;;;;-0.30;97879.00;;;;4897430;29;20407;-63
2023/12/02 10:29:54;;;;;;;5.60;4.30;;;;;-0.10;97889.00;;;;4896769;29;20056;-64
2023/12/02 10:32:32;;;;;;;6.57;4.43;;;;;-0.10;97886.00;;;;4897361;29;20105;-63
2023/12/02 10:35:22;;;;;;;11.75;7.07;;;;;0.00;97893.00;;;;4896746;29;20063;-63
2023/12/02 10:37:58;;;;;;;4.80;3.78;;;;;0.10;97886.00;;;;4897239;29;20053;-63
2023/12/02 10:40:27;;;;;;;5.45;3.72;;;;;0.00;97885.00;;;;4897228;29;20075;-63
2023/12/02 10:43:10;;;;;;;4.90;4.05;;;;;-0.10;97881.00;;;;4897281;29;20123;-64
2023/12/02 10:45:40;;;;;;;5.20;3.47;;;;;0.00;97893.00;;;;4896646;29;20040;-63
2023/12/02 10:48:10;;;;;;;4.97;3.90;;;;;0.00;97890.00;;;;4896062;29;20049;-64
2023/12/02 10:50:39;;;;;;;6.85;4.28;;;;;0.00;97895.00;;;;4895986;29;20061;-64
2023/12/02 10:53:09;;;;;;;4.22;3.40;;;;;0.20;97889.00;;;;4897158;29;20123;-64
2023/12/02 10:55:39;;;;;;;5.60;4.13;;;;;0.20;97896.00;;;;4895173;29;20044;-64
2023/12/02 10:58:06;;;;;;;4.93;3.47;;;;;0.10;97887.00;;;;4897006;29;20068;-64
2023/12/02 11:00:35;;;;;;;7.15;5.88;;;;;-0.10;97887.00;;;;4897654;29;20087;-64
2023/12/02 11:03:19;;;;;;;12.93;6.57;;;;;0.00;97895.00;;;;4897017;29;20071;-63
2023/12/02 11:06:01;;;;;;;7.28;5.05;;;;;0.20;97897.00;;;;4896228;29;20040;-62
2023/12/02 11:08:48;;;;;;;6.72;5.20;;;;;0.40;97894.00;;;;4896963;29;20517;-64
2023/12/02 11:11:24;;;;;;;7.22;5.32;;;;;0.30;97897.00;;;;4895816;29;20076;-63
2023/12/02 11:13:57;;;;;;;6.95;4.53;;;;;0.30;97902.00;;;;4896636;29;20057;-63
2023/12/02 11:16:41;;;;;;;6.38;4.75;;;;;0.20;97915.00;;;;4880354;29;20083;-64
2023/12/02 11:19:11;;;;;;;6.90;4.68;;;;;0.10;97916.00;;;;4897100;29;20052;-64
2023/12/02 11:22:20;;;;;;;5.82;4.60;;;;;0.10;97911.00;;;;4895778;29;20058;-64
2023/12/02 11:24:59;;;;;;;6.32;4.63;;;;;0.00;97924.00;;;;4896543;29;20494;-62
2023/12/02 11:27:53;;;;;;;6.72;5.13;;;;;0.00;97923.00;;;;4897100;29;20083;-64
2023/12/02 11:30:46;;;;;;;6.85;4.70;;;;;0.20;97932.00;;;;4898122;29;20123;-64
2023/12/02 11:33:38;;;;;;;5.95;4.13;;;;;0.10;97936.00;;;;4900820;29;20045;-62
2023/12/02 11:36:06;;;;;;;6.55;5.22;;;;;0.20;97937.00;;;;4900427;29;20048;-62
2023/12/02 11:38:33;;;;;;;8.23;5.10;;;;;0.10;97941.00;;;;4900757;29;20080;-63
2023/12/02 11:41:41;;;;;;;5.50;4.35;;;;;0.00;97948.00;;;;4900621;29;20072;-62
2023/12/02 11:44:17;;;;;;;6.70;4.80;;;;;0.00;97948.00;;;;4901503;29;20136;-62
2023/12/02 11:47:08;;;;;;;5.72;4.35;;;;;0.00;97951.00;;;;4898959;29;20128;-63
2023/12/02 11:50:31;;;;;;;7.30;5.15;;;;;0.00;97961.00;;;;4883404;29;20151;-64
2023/12/02 11:53:16;;;;;;;7.60;4.75;;;;;0.10;97972.00;;;;4832770;29;20069;-64
2023/12/02 11:56:07;;;;;;;7.95;5.28;;;;;0.20;97971.00;;;;4899542;29;20139;-64
2023/12/02 11:58:46;;;;;;;6.18;4.68;;;;;0.20;97972.00;;;;4900096;29;20053;-64
2023/12/02 12:01:43;;;;;;;5.78;4.70;;;;;0.30;97972.00;;;;4900022;29;20072;-64
2023/12/02 12:04:47;;;;;;;8.63;5.43;;;;;0.30;97979.00;;;;4898550;29;20044;-66
2023/12/02 12:07:52;;;;;;;11.82;5.25;;;;;0.30;97982.00;;;;4899840;29;20047;-64
2023/12/02 12:10:19;;;;;;;6.40;4.85;;;;;0.20;97985.00;;;;4900121;29;20048;-63
2023/12/02 12:12:48;;;;;;;7.05;4.95;;;;;0.20;97982.00;;;;4899774;29;20048;-63
2023/12/02 12:15:15;;;;;;;15.73;5.78;;;;;0.10;97980.00;;;;4899135;29;20059;-63
2023/12/02 12:17:42;;;;;;;7.35;5.40;;;;;0.20;97992.00;;;;4899862;29;20037;-63
2023/12/02 12:20:23;;;;;;;6.55;4.70;;;;;0.10;97980.00;;;;4899724;29;20045;-63
2023/12/02 12:22:50;;;;;;;7.80;5.18;;;;;-0.20;97990.00;;;;4898474;29;20053;-64
2023/12/02 12:25:17;;;;;;;8.18;5.78;;;;;-0.10;98002.00;;;;4897699;29;20045;-63
2023/12/02 12:27:44;;;;;;;9.50;6.15;;;;;0.00;98001.00;;;;4899529;29;20104;-63
2023/12/02 12:30:10;;;;;;;8.05;5.20;;;;;0.00;98004.00;;;;4899648;29;20351;-63
2023/12/02 12:32:38;;;;;;;7.25;5.38;;;;;0.00;98009.00;;;;4899434;29;20557;-63